createdAt,value
2023-06-03T00:00:51.504Z,16.00
2023-06-03T00:03:40.387Z,15.90
2023-06-03T00:06:28.016Z,16.00
2023-06-03T00:09:15.857Z,15.90
2023-06-03T00:12:03.239Z,15.80
2023-06-03T00:14:51.066Z,15.80
2023-06-03T00:17:38.992Z,15.70
2023-06-03T00:20:26.571Z,15.70
2023-06-03T00:23:13.914Z,15.80
2023-06-03T00:26:01.209Z,15.80
2023-06-03T00:28:49.257Z,15.80
2023-06-03T00:31:36.697Z,15.80
2023-06-03T00:34:24.054Z,15.70
2023-06-03T00:37:11.506Z,15.70
2023-06-03T00:39:59.102Z,15.70
2023-06-03T00:42:46.558Z,15.70
2023-06-03T00:45:33.852Z,15.60
2023-06-03T00:48:21.571Z,15.60
2023-06-03T00:51:09.490Z,15.60
2023-06-03T00:53:56.985Z,15.60
2023-06-03T00:56:46.449Z,15.50
2023-06-03T00:59:33.991Z,15.50
2023-06-03T01:02:21.736Z,15.50
2023-06-03T01:05:09.554Z,15.50
2023-06-03T01:08:14.204Z,15.50
2023-06-03T01:11:19.853Z,15.50
2023-06-03T01:14:16.112Z,15.40
2023-06-03T01:17:08.347Z,15.40
2023-06-03T01:19:57.680Z,15.40
2023-06-03T01:22:47.299Z,15.40
2023-06-03T01:25:36.225Z,15.40
2023-06-03T01:28:24.636Z,15.40
2023-06-03T01:31:11.957Z,15.30
2023-06-03T01:33:59.380Z,15.30
2023-06-03T01:36:47.101Z,15.30
2023-06-03T01:39:35.312Z,15.30
2023-06-03T01:42:22.679Z,15.30
2023-06-03T01:45:10.621Z,15.30
2023-06-03T01:47:58.475Z,15.30
2023-06-03T01:50:46.626Z,15.30
2023-06-03T01:53:53.246Z,15.30
2023-06-03T01:56:40.654Z,15.30
2023-06-03T01:59:28.246Z,15.20
2023-06-03T02:02:15.919Z,15.10
2023-06-03T02:05:04.348Z,15.10
2023-06-03T02:07:51.700Z,15.10
2023-06-03T02:10:39.430Z,15.00
2023-06-03T02:13:26.948Z,15.00
2023-06-03T02:16:14.952Z,15.00
2023-06-03T02:19:04.046Z,15.00
2023-06-03T02:21:52.061Z,15.00
2023-06-03T02:24:39.542Z,15.00
2023-06-03T02:27:28.966Z,15.00
2023-06-03T02:30:16.401Z,14.90
2023-06-03T02:33:03.941Z,14.90
2023-06-03T02:35:50.959Z,14.80
2023-06-03T02:38:38.262Z,14.80
2023-06-03T02:41:26.256Z,14.80
2023-06-03T02:44:15.068Z,14.70
2023-06-03T02:47:02.585Z,14.70
2023-06-03T02:49:50.710Z,14.70
2023-06-03T02:52:38.387Z,14.70
2023-06-03T02:55:27.846Z,14.70
2023-06-03T02:58:16.738Z,14.60
2023-06-03T03:01:04.863Z,14.60
2023-06-03T03:03:52.523Z,14.60
2023-06-03T03:06:41.853Z,14.60
2023-06-03T03:09:29.728Z,14.60
2023-06-03T03:12:17.245Z,14.60
2023-06-03T03:15:05.111Z,14.60
2023-06-03T03:17:52.425Z,14.60
2023-06-03T03:20:40.140Z,14.60
2023-06-03T03:23:34.925Z,14.60
2023-06-03T03:26:23.508Z,14.50
2023-06-03T03:29:10.947Z,14.50
2023-06-03T03:32:01.724Z,14.50
2023-06-03T03:34:55.855Z,14.50
2023-06-03T03:37:44.386Z,14.50
2023-06-03T03:40:33.433Z,14.50
2023-06-03T03:43:21.497Z,14.60
2023-06-03T03:46:12.121Z,14.60
2023-06-03T03:49:00.183Z,14.70
2023-06-03T03:51:48.252Z,14.70
2023-06-03T03:54:36.668Z,14.60
2023-06-03T03:57:25.918Z,14.60
2023-06-03T04:00:14.668Z,14.50
2023-06-03T04:03:02.200Z,14.50
2023-06-03T04:05:50.720Z,14.50
2023-06-03T04:08:44.838Z,14.50
2023-06-03T04:11:34.675Z,14.50
2023-06-03T04:14:26.720Z,14.60
2023-06-03T04:17:15.429Z,14.60
2023-06-03T04:20:02.788Z,14.60
2023-06-03T04:22:52.880Z,14.70
2023-06-03T04:25:42.076Z,14.70
2023-06-03T04:28:29.177Z,14.70
2023-06-03T04:31:16.679Z,14.70
2023-06-03T04:34:04.856Z,14.70
2023-06-03T04:36:52.769Z,14.70
2023-06-03T04:39:40.610Z,14.80
2023-06-03T04:42:30.045Z,14.80
2023-06-03T04:45:17.201Z,14.90
2023-06-03T04:48:06.403Z,14.90
2023-06-03T04:50:53.877Z,14.90
2023-06-03T04:53:42.487Z,15.00
2023-06-03T04:56:33.201Z,15.00
2023-06-03T04:59:20.778Z,15.00
2023-06-03T05:02:09.827Z,15.10
2023-06-03T05:04:57.577Z,15.10
2023-06-03T05:07:45.436Z,15.20
2023-06-03T05:10:32.737Z,15.20
2023-06-03T05:13:21.345Z,15.20
2023-06-03T05:16:08.822Z,15.20
2023-06-03T05:18:56.746Z,15.30
2023-06-03T05:21:44.360Z,15.30
2023-06-03T05:24:32.084Z,15.40
2023-06-03T05:27:19.228Z,15.40
2023-06-03T05:30:07.259Z,15.50
2023-06-03T05:32:54.961Z,15.50
2023-06-03T05:35:42.482Z,15.50
2023-06-03T05:38:31.902Z,15.60
2023-06-03T05:41:19.778Z,15.60
2023-06-03T05:44:26.786Z,15.70
2023-06-03T05:47:14.248Z,15.90
2023-06-03T05:50:01.789Z,15.90
2023-06-03T05:52:49.283Z,15.90
2023-06-03T05:55:36.850Z,15.90
2023-06-03T05:58:24.507Z,15.90
2023-06-03T06:01:12.015Z,15.90
2023-06-03T06:03:59.806Z,16.10
2023-06-03T06:06:47.584Z,16.10
2023-06-03T06:09:36.553Z,16.20
2023-06-03T06:12:24.661Z,16.20
2023-06-03T06:15:12.398Z,16.30
2023-06-03T06:17:59.856Z,16.40
2023-06-03T06:20:50.363Z,16.50
2023-06-03T06:23:38.249Z,16.50
2023-06-03T06:26:26.637Z,16.70
2023-06-03T06:29:14.331Z,16.90
2023-06-03T06:32:02.420Z,17.10
2023-06-03T06:35:09.227Z,17.10
2023-06-03T06:37:59.003Z,17.20
2023-06-03T06:40:46.907Z,17.10
2023-06-03T06:43:36.561Z,17.10
2023-06-03T06:46:25.907Z,17.00
2023-06-03T06:49:13.811Z,16.90
2023-06-03T06:52:02.051Z,17.00
2023-06-03T06:54:49.813Z,17.20
2023-06-03T06:57:37.164Z,17.20
2023-06-03T07:00:24.830Z,17.20
2023-06-03T07:03:13.949Z,17.20
2023-06-03T07:06:01.426Z,17.30
2023-06-03T07:08:49.321Z,17.60
2023-06-03T07:11:42.887Z,17.70
2023-06-03T07:14:33.436Z,17.70
2023-06-03T07:17:20.827Z,17.90
2023-06-03T07:20:08.891Z,17.90
2023-06-03T07:22:56.623Z,17.80
2023-06-03T07:25:46.519Z,18.00
2023-06-03T07:28:36.153Z,18.10
2023-06-03T07:31:23.815Z,18.10
2023-06-03T07:34:11.307Z,18.30
2023-06-03T07:37:01.971Z,18.50
2023-06-03T07:39:49.758Z,18.40
2023-06-03T07:42:39.849Z,18.60
2023-06-03T07:45:28.390Z,18.50
2023-06-03T07:48:17.006Z,18.60
2023-06-03T07:51:05.259Z,18.50
2023-06-03T07:53:55.944Z,18.60
2023-06-03T07:56:44.075Z,18.50
2023-06-03T07:59:31.698Z,18.70
2023-06-03T08:02:19.101Z,18.70
2023-06-03T08:05:07.065Z,18.80
2023-06-03T08:07:54.464Z,18.90
2023-06-03T08:10:41.863Z,18.90
2023-06-03T08:13:29.885Z,19.00
2023-06-03T08:16:21.245Z,18.90
2023-06-03T08:19:11.464Z,19.00
2023-06-03T08:21:59.384Z,19.00
2023-06-03T08:24:46.761Z,19.10
2023-06-03T08:27:34.510Z,19.00
2023-06-03T08:30:23.403Z,19.10
2023-06-03T08:33:11.376Z,19.20
2023-06-03T08:35:59.225Z,19.30
2023-06-03T08:38:46.918Z,19.50
2023-06-03T08:41:43.484Z,19.60
2023-06-03T08:44:42.974Z,19.70
2023-06-03T08:47:36.318Z,19.60
2023-06-03T08:50:27.658Z,19.70
2023-06-03T08:53:15.799Z,19.80
2023-06-03T08:56:04.184Z,19.70
2023-06-03T08:59:02.984Z,19.80
2023-06-03T09:01:53.798Z,20.00
2023-06-03T09:04:42.051Z,20.20
2023-06-03T09:07:31.615Z,20.20
2023-06-03T09:10:40.079Z,20.30
2023-06-03T09:13:32.362Z,20.30
2023-06-03T09:16:21.375Z,20.70
2023-06-03T09:19:08.844Z,20.80
2023-06-03T09:22:00.156Z,20.80
2023-06-03T09:24:48.831Z,20.90
2023-06-03T09:27:37.549Z,20.90
2023-06-03T09:30:25.020Z,21.10
2023-06-03T09:33:12.452Z,21.00
2023-06-03T09:36:16.275Z,21.10
2023-06-03T09:39:03.328Z,21.30
2023-06-03T09:41:52.381Z,21.60
2023-06-03T09:44:41.830Z,21.70
2023-06-03T09:47:32.321Z,21.80
2023-06-03T09:50:19.649Z,22.10
2023-06-03T09:53:09.760Z,22.40
2023-06-03T09:55:56.878Z,22.40
2023-06-03T09:58:44.763Z,22.30
2023-06-03T10:01:32.918Z,22.60
2023-06-03T10:04:26.106Z,22.80
2023-06-03T10:07:18.643Z,22.50
2023-06-03T10:10:09.173Z,22.70
2023-06-03T10:12:58.444Z,22.40
2023-06-03T10:15:46.055Z,22.60
2023-06-03T10:18:38.558Z,23.00
2023-06-03T10:21:26.815Z,23.70
2023-06-03T10:24:16.116Z,23.50
2023-06-03T10:27:04.515Z,23.80
2023-06-03T10:29:57.720Z,23.60
2023-06-03T10:32:47.004Z,23.50
2023-06-03T10:35:35.472Z,23.60
2023-06-03T10:38:22.987Z,23.60
2023-06-03T10:41:12.779Z,23.60
2023-06-03T10:44:00.115Z,23.90
2023-06-03T10:46:51.022Z,23.80
2023-06-03T10:49:59.707Z,24.00
2023-06-03T10:52:56.321Z,24.30
2023-06-03T10:56:09.667Z,24.50
2023-06-03T10:59:08.344Z,25.10
2023-06-03T11:02:03.773Z,24.80
2023-06-03T11:04:54.543Z,24.80
2023-06-03T11:07:44.930Z,24.90
2023-06-03T11:10:40.904Z,24.80
2023-06-03T11:13:42.825Z,25.20
2023-06-03T11:16:30.314Z,25.50
2023-06-03T11:19:35.774Z,25.30
2023-06-03T11:22:38.728Z,25.10
2023-06-03T11:25:30.340Z,25.60
2023-06-03T11:28:35.148Z,25.10
2023-06-03T11:31:23.316Z,25.00
2023-06-03T11:34:27.379Z,25.00
2023-06-03T11:37:17.857Z,24.80
2023-06-03T11:40:10.148Z,25.40
2023-06-03T11:43:02.098Z,26.10
2023-06-03T11:45:49.694Z,26.00
2023-06-03T11:48:38.700Z,25.90
2023-06-03T11:51:30.362Z,26.10
2023-06-03T11:54:20.713Z,26.40
2023-06-03T11:57:09.539Z,26.90
2023-06-03T11:59:57.516Z,26.70
2023-06-03T12:02:48.374Z,26.80
2023-06-03T12:05:36.104Z,26.70
2023-06-03T12:08:24.000Z,26.60
2023-06-03T12:11:11.408Z,26.80
2023-06-03T12:13:58.961Z,26.80
2023-06-03T12:16:46.644Z,27.00
2023-06-03T12:19:34.157Z,27.70
2023-06-03T12:22:28.105Z,27.50
2023-06-03T12:25:24.125Z,27.60
2023-06-03T12:28:26.079Z,27.60
2023-06-03T12:31:14.660Z,28.10
2023-06-03T12:34:02.129Z,28.00
2023-06-03T12:36:51.178Z,27.50
2023-06-03T12:39:49.809Z,27.00
2023-06-03T12:42:45.828Z,26.60
2023-06-03T12:45:33.210Z,26.60
2023-06-03T12:48:34.243Z,26.70
2023-06-03T12:51:26.585Z,26.80
2023-06-03T12:54:14.181Z,27.20
2023-06-03T12:57:01.871Z,27.60
2023-06-03T13:00:20.732Z,27.10
2023-06-03T13:03:09.110Z,26.80
2023-06-03T13:05:56.707Z,26.70
2023-06-03T13:08:43.914Z,27.40
2023-06-03T13:11:31.815Z,27.50
2023-06-03T13:14:19.749Z,27.00
2023-06-03T13:17:07.649Z,26.80
2023-06-03T13:19:55.695Z,27.00
2023-06-03T13:22:44.000Z,26.60
2023-06-03T13:25:31.324Z,26.60
2023-06-03T13:28:19.234Z,26.70
2023-06-03T13:31:10.026Z,27.20
2023-06-03T13:33:57.731Z,27.10
2023-06-03T13:36:53.752Z,26.90
2023-06-03T13:39:41.603Z,26.90
2023-06-03T13:42:29.601Z,26.90
2023-06-03T13:45:17.230Z,26.70
2023-06-03T13:48:04.919Z,26.70
2023-06-03T13:50:53.523Z,26.50
2023-06-03T13:53:40.902Z,26.60
2023-06-03T13:56:28.429Z,26.50
2023-06-03T13:59:16.191Z,26.80
2023-06-03T14:02:03.922Z,26.90
2023-06-03T14:04:51.551Z,27.20
2023-06-03T14:07:38.665Z,26.90
2023-06-03T14:10:25.950Z,27.00
2023-06-03T14:13:13.508Z,26.80
2023-06-03T14:16:01.269Z,26.90
2023-06-03T14:18:49.115Z,27.10
2023-06-03T14:21:36.804Z,27.20
2023-06-03T14:24:24.383Z,26.90
2023-06-03T14:27:11.784Z,26.90
2023-06-03T14:29:59.135Z,26.90
2023-06-03T14:32:46.624Z,26.90
2023-06-03T14:35:34.232Z,27.40
2023-06-03T14:38:22.657Z,27.60
2023-06-03T14:41:10.817Z,28.00
2023-06-03T14:43:58.512Z,28.10
2023-06-03T14:46:45.794Z,28.10
2023-06-03T14:49:34.922Z,28.20
2023-06-03T14:52:22.701Z,28.00
2023-06-03T14:55:10.565Z,27.50
2023-06-03T14:57:57.903Z,27.40
2023-06-03T15:00:45.869Z,27.30
2023-06-03T15:03:33.413Z,27.40
2023-06-03T15:06:21.317Z,27.50
2023-06-03T15:09:08.683Z,27.50
2023-06-03T15:11:56.209Z,27.50
2023-06-03T15:14:44.249Z,27.50
2023-06-03T15:17:32.840Z,27.70
2023-06-03T15:20:20.912Z,27.70
2023-06-03T15:23:09.051Z,28.20
2023-06-03T15:25:56.725Z,28.60
2023-06-03T15:28:44.374Z,28.10
2023-06-03T15:31:31.980Z,28.10
2023-06-03T15:34:19.445Z,28.20
2023-06-03T15:37:07.087Z,28.10
2023-06-03T15:39:54.770Z,27.90
2023-06-03T15:42:42.419Z,28.50
2023-06-03T15:45:30.059Z,28.90
2023-06-03T15:48:17.372Z,28.80
2023-06-03T15:51:05.102Z,28.70
2023-06-03T15:53:52.242Z,28.70
2023-06-03T15:56:39.720Z,28.50
2023-06-03T15:59:27.394Z,28.60
2023-06-03T16:02:14.581Z,28.40
2023-06-03T16:05:02.501Z,28.40
2023-06-03T16:07:49.754Z,28.30
2023-06-03T16:10:38.415Z,28.10
2023-06-03T16:13:27.576Z,28.30
2023-06-03T16:16:15.049Z,28.30
2023-06-03T16:19:02.347Z,28.40
2023-06-03T16:21:50.776Z,28.30
2023-06-03T16:24:38.939Z,28.40
2023-06-03T16:27:26.687Z,28.20
2023-06-03T16:30:14.404Z,28.10
2023-06-03T16:33:02.231Z,28.00
2023-06-03T16:35:49.576Z,28.30
2023-06-03T16:38:38.524Z,28.30
2023-06-03T16:41:27.518Z,28.30
2023-06-03T16:44:14.837Z,28.40
2023-06-03T16:47:02.369Z,28.20
2023-06-03T16:49:49.963Z,27.90
2023-06-03T16:52:38.524Z,27.80
2023-06-03T16:55:25.968Z,27.20
2023-06-03T16:58:13.479Z,27.00
2023-06-03T17:01:01.479Z,27.10
2023-06-03T17:03:48.830Z,26.90
2023-06-03T17:06:36.142Z,26.70
2023-06-03T17:09:23.599Z,26.90
2023-06-03T17:12:11.309Z,27.00
2023-06-03T17:14:59.384Z,27.20
2023-06-03T17:17:47.096Z,27.50
2023-06-03T17:20:34.569Z,27.70
2023-06-03T17:23:23.964Z,27.70
2023-06-03T17:26:11.512Z,27.80
2023-06-03T17:29:00.598Z,27.80
2023-06-03T17:31:48.224Z,27.50
2023-06-03T17:34:36.274Z,27.60
2023-06-03T17:37:23.830Z,27.40
2023-06-03T17:40:12.135Z,27.60
2023-06-03T17:42:59.523Z,27.90
2023-06-03T17:45:47.034Z,28.30
2023-06-03T17:48:34.594Z,28.40
2023-06-03T17:51:22.627Z,28.20
2023-06-03T17:54:10.213Z,27.80
2023-06-03T17:56:57.444Z,27.80
2023-06-03T17:59:44.646Z,27.20
2023-06-03T18:02:34.012Z,26.20
2023-06-03T18:05:21.598Z,25.50
2023-06-03T18:08:08.841Z,25.00
2023-06-03T18:10:56.196Z,24.70
2023-06-03T18:13:43.536Z,24.30
2023-06-03T18:16:31.265Z,23.90
2023-06-03T18:19:18.675Z,23.70
2023-06-03T18:22:06.223Z,23.60
2023-06-03T18:24:53.955Z,23.40
2023-06-03T18:27:41.333Z,23.30
2023-06-03T18:30:29.924Z,23.10
2023-06-03T18:33:19.007Z,23.00
2023-06-03T18:36:07.022Z,22.90
2023-06-03T18:38:55.262Z,22.80
2023-06-03T18:41:43.221Z,22.70
2023-06-03T18:44:30.549Z,22.60
2023-06-03T18:47:17.862Z,22.50
2023-06-03T18:50:05.487Z,22.50
2023-06-03T18:52:52.899Z,22.40
2023-06-03T18:55:41.164Z,22.30
2023-06-03T18:58:28.788Z,22.20
2023-06-03T19:01:16.484Z,22.00
2023-06-03T19:04:04.615Z,21.90
2023-06-03T19:06:51.823Z,21.90
2023-06-03T19:09:39.423Z,21.80
2023-06-03T19:12:27.030Z,21.70
2023-06-03T19:15:14.801Z,21.70
2023-06-03T19:18:02.740Z,21.50
2023-06-03T19:20:50.789Z,21.40
2023-06-03T19:23:38.930Z,21.30
2023-06-03T19:26:26.015Z,21.20
2023-06-03T19:29:13.550Z,21.10
2023-06-03T19:32:02.102Z,21.00
2023-06-03T19:34:49.593Z,20.90
2023-06-03T19:37:37.341Z,20.80
2023-06-03T19:40:25.100Z,20.80
2023-06-03T19:43:12.107Z,20.70
2023-06-03T19:45:59.548Z,20.70
2023-06-03T19:48:47.693Z,20.60
2023-06-03T19:51:35.049Z,20.50
2023-06-03T19:54:22.428Z,20.40
2023-06-03T19:57:10.594Z,20.40
2023-06-03T19:59:59.377Z,20.30
2023-06-03T20:02:47.263Z,20.30
2023-06-03T20:05:37.626Z,20.20
2023-06-03T20:08:25.519Z,20.20
2023-06-03T20:11:12.794Z,20.10
2023-06-03T20:14:00.212Z,20.00
2023-06-03T20:16:47.592Z,20.00
2023-06-03T20:19:34.951Z,20.00
2023-06-03T20:22:23.094Z,19.90
2023-06-03T20:25:10.929Z,19.90
2023-06-03T20:28:00.505Z,19.90
2023-06-03T20:30:47.929Z,19.80
2023-06-03T20:33:36.610Z,19.70
2023-06-03T20:36:25.997Z,19.70
2023-06-03T20:39:13.486Z,19.70
2023-06-03T20:42:01.136Z,19.70
2023-06-03T20:44:48.542Z,19.60
2023-06-03T20:47:36.281Z,19.60
2023-06-03T20:50:24.058Z,19.50
2023-06-03T20:53:11.842Z,19.50
2023-06-03T20:55:59.131Z,19.40
2023-06-03T20:58:46.458Z,19.30
2023-06-03T21:01:34.207Z,19.40
2023-06-03T21:04:21.769Z,19.30
2023-06-03T21:07:09.470Z,19.30
2023-06-03T21:09:57.215Z,19.20
2023-06-03T21:12:44.610Z,19.20
2023-06-03T21:15:32.109Z,19.20
2023-06-03T21:18:19.646Z,19.10
2023-06-03T21:21:07.270Z,19.10
2023-06-03T21:23:55.087Z,19.10
2023-06-03T21:26:42.773Z,19.10
2023-06-03T21:29:30.744Z,19.00
2023-06-03T21:32:18.290Z,19.00
2023-06-03T21:35:05.916Z,19.00
2023-06-03T21:37:53.226Z,18.90
2023-06-03T21:40:41.361Z,18.90
2023-06-03T21:43:28.768Z,18.90
2023-06-03T21:46:16.301Z,18.80
2023-06-03T21:49:03.865Z,18.80
2023-06-03T21:51:51.208Z,18.80
2023-06-03T21:54:43.460Z,18.70
2023-06-03T21:57:31.936Z,18.70
2023-06-03T22:00:21.264Z,18.70
2023-06-03T22:03:08.802Z,18.60
2023-06-03T22:05:56.570Z,18.60
2023-06-03T22:08:43.896Z,18.60
2023-06-03T22:11:33.098Z,18.50
2023-06-03T22:14:20.710Z,18.50
2023-06-03T22:17:07.809Z,18.50
2023-06-03T22:19:55.249Z,18.50
2023-06-03T22:22:48.692Z,18.50
2023-06-03T22:25:33.948Z,18.40
2023-06-03T22:28:22.698Z,18.40
2023-06-03T22:31:10.497Z,18.30
2023-06-03T22:33:58.180Z,18.30
2023-06-03T22:36:45.750Z,18.20
2023-06-03T22:39:33.497Z,18.20
2023-06-03T22:42:21.303Z,18.20
2023-06-03T22:45:09.014Z,18.20
2023-06-03T22:47:56.769Z,18.10
2023-06-03T22:50:44.224Z,18.10
2023-06-03T22:53:31.535Z,18.10
2023-06-03T22:56:18.839Z,18.10
2023-06-03T22:59:06.523Z,18.10
2023-06-03T23:01:53.821Z,18.00
2023-06-03T23:04:41.535Z,18.00
2023-06-03T23:07:29.308Z,18.00
2023-06-03T23:10:16.717Z,18.00
2023-06-03T23:13:04.408Z,17.90
2023-06-03T23:15:52.054Z,17.90
2023-06-03T23:18:39.654Z,17.90
2023-06-03T23:21:28.808Z,17.80
2023-06-03T23:24:16.159Z,17.80
2023-06-03T23:27:03.640Z,17.80
2023-06-03T23:29:51.261Z,17.80
2023-06-03T23:32:39.145Z,17.80
2023-06-03T23:35:26.953Z,17.80
2023-06-03T23:38:14.568Z,17.70
2023-06-03T23:41:02.029Z,17.70
2023-06-03T23:43:49.407Z,17.70
2023-06-03T23:46:36.885Z,17.60
2023-06-03T23:49:24.345Z,17.60
2023-06-03T23:52:11.821Z,17.50
2023-06-03T23:54:59.180Z,17.50
2023-06-03T23:57:46.513Z,17.50
